La Crosse Municipal Airport
KLSE : now visible

Airfield :











YOU CAN JOIN US ON...

 
LOGIN :

Register | Disclaimer

   EN    FR    IT 

 









Legend :    VFR   Marginal VFR   IFR   Intensive IFR   Very Intensive IFR
Visi :
Ceiling :
>= 8 km
>= 3000ft
5 to 8 km
1000 to 3000 ft
1500m to 5 km
500 to 1000 ft
800 to 1500m
200 to 500 ft
< 800m
< 200 ft
Symbols :   Thunderstorms  Fog  Heavy snow  Heavy precipitations  Wind > 20 kt






- Airport Elevation : 655 ft
- IATA code : LSE


KLSE - La Crosse Municipal

CURRENT METAR :
  • 261153Z 13004KT 10SM CLR 12/08 A2984 RMK AO2 SLP104 T01170083 10122 20089 55003

EXPIRED METARs :
  • 261053Z 16008KT 10SM CLR 12/09 A2983 RMK AO2 SLP099 T01170089
  • 260953Z AUTO 15007KT 10SM CLR 11/08 A2984 RMK AO2 SLP102 T01060083

TAF KLSE
Valid from the 26 at 12:00 until the 27 at 12:00 UTC


261120Z 2612/2712 16008KT P6SM SCT150
FM261500 20010KT P6SM BKN150
FM270000 16004KT P6SM FEW200
KZMP FIR / North America



MET'MAP, your aeronautical weather chart ! - Copyright ORBIFLY December 2007 - Disclaimer

ORBIFLY MET'MAP TEAM :

Programming & Development : Alexandra Zaïnal
Concept & original design : Baudouin d'Aumeries
Assistance for programming : Marc-Olivier Méhu
Technical & hardware support : Manuel Goepfert

Contact : metmap@orbifly.com




SOURCES & CREDITS :

   NOAA       Earth
Advisory